createdAt,value
2023-04-20T00:00:23.181Z,27
2023-04-20T00:01:30.051Z,27
2023-04-20T00:02:37.103Z,28
2023-04-20T00:03:43.957Z,27
2023-04-20T00:04:50.658Z,27
2023-04-20T00:05:58.340Z,26
2023-04-20T00:07:05.189Z,29
2023-04-20T00:08:12.086Z,27
2023-04-20T00:09:19.127Z,28
2023-04-20T00:10:25.848Z,28
2023-04-20T00:11:32.627Z,27
2023-04-20T00:12:39.517Z,27
2023-04-20T00:13:46.367Z,27
2023-04-20T00:14:53.216Z,30
2023-04-20T00:16:00.185Z,27
2023-04-20T00:17:07.117Z,27
2023-04-20T00:18:13.990Z,28
2023-04-20T00:19:21.817Z,27
2023-04-20T00:20:28.686Z,25
2023-04-20T00:21:36.428Z,26
2023-04-20T00:22:43.350Z,29
2023-04-20T00:23:50.221Z,29
2023-04-20T00:24:57.115Z,29
2023-04-20T00:26:03.971Z,30
2023-04-20T00:27:10.818Z,30
2023-04-20T00:28:17.707Z,30
2023-04-20T00:29:24.708Z,31
2023-04-20T00:30:31.639Z,33
2023-04-20T00:31:38.553Z,33
2023-04-20T00:32:45.570Z,35
2023-04-20T00:33:52.459Z,32
2023-04-20T00:34:59.277Z,31
2023-04-20T00:36:06.218Z,30
2023-04-20T00:37:13.121Z,30
2023-04-20T00:38:20.037Z,30
2023-04-20T00:39:26.972Z,30
2023-04-20T00:40:33.827Z,31
2023-04-20T00:41:40.793Z,31
2023-04-20T00:42:47.617Z,28
2023-04-20T00:43:54.556Z,29
2023-04-20T00:45:01.471Z,28
2023-04-20T00:46:08.693Z,30
2023-04-20T00:47:15.580Z,29
2023-04-20T00:48:22.537Z,27
2023-04-20T00:49:29.372Z,28
2023-04-20T00:50:36.294Z,28
2023-04-20T00:51:43.984Z,28
2023-04-20T00:52:50.803Z,30
2023-04-20T00:53:57.701Z,29
2023-04-20T00:55:04.611Z,27
2023-04-20T00:56:11.665Z,29
2023-04-20T00:57:18.601Z,29
2023-04-20T00:58:25.370Z,29
2023-04-20T00:59:32.221Z,30
2023-04-20T01:00:39.068Z,29
2023-04-20T01:01:46.032Z,29
2023-04-20T01:02:52.950Z,31
2023-04-20T01:03:59.753Z,30
2023-04-20T01:05:06.652Z,31
2023-04-20T01:06:13.493Z,30
2023-04-20T01:07:20.326Z,29
2023-04-20T01:08:27.208Z,31
2023-04-20T01:09:34.840Z,30
2023-04-20T01:10:41.689Z,29
2023-04-20T01:11:48.483Z,29
2023-04-20T01:12:55.345Z,32
2023-04-20T01:14:02.252Z,30
2023-04-20T01:15:09.502Z,30
2023-04-20T01:16:16.380Z,30
2023-04-20T01:17:23.171Z,30
2023-04-20T01:18:29.956Z,31
2023-04-20T01:19:45.050Z,30
2023-04-20T01:20:52.000Z,30
2023-04-20T01:21:59.711Z,30
2023-04-20T01:23:06.587Z,32
2023-04-20T01:24:13.500Z,31
2023-04-20T01:25:20.375Z,29
2023-04-20T01:26:27.313Z,31
2023-04-20T01:27:34.078Z,29
2023-04-20T01:28:40.947Z,29
2023-04-20T01:29:47.787Z,31
2023-04-20T01:30:54.697Z,32
2023-04-20T01:32:01.541Z,30
2023-04-20T01:33:08.491Z,29
2023-04-20T01:34:15.378Z,32
2023-04-20T01:35:22.284Z,31
2023-04-20T01:36:29.160Z,30
2023-04-20T01:37:36.004Z,30
2023-04-20T01:38:42.845Z,29
2023-04-20T01:39:49.709Z,31
2023-04-20T01:40:56.513Z,30
2023-04-20T01:42:03.432Z,30
2023-04-20T01:43:10.325Z,31
2023-04-20T01:44:17.223Z,30
2023-04-20T01:45:24.150Z,30
2023-04-20T01:46:31.075Z,33
2023-04-20T01:47:40.630Z,31
2023-04-20T01:48:47.414Z,32
2023-04-20T01:49:54.218Z,31
2023-04-20T01:51:01.124Z,32
2023-04-20T01:52:08.030Z,32
2023-04-20T01:53:14.888Z,31
2023-04-20T01:54:21.727Z,33
2023-04-20T01:55:28.566Z,32
2023-04-20T01:56:35.486Z,32
2023-04-20T01:57:42.348Z,32
2023-04-20T01:58:49.199Z,33
2023-04-20T01:59:56.008Z,31
2023-04-20T02:01:03.226Z,30
2023-04-20T02:02:10.183Z,31
2023-04-20T02:03:17.112Z,33
2023-04-20T02:04:23.828Z,34
2023-04-20T02:05:30.677Z,32
2023-04-20T02:06:37.566Z,32
2023-04-20T02:07:44.413Z,33
2023-04-20T02:08:51.245Z,34
2023-04-20T02:09:58.131Z,31
2023-04-20T02:11:05.008Z,33
2023-04-20T02:12:12.054Z,33
2023-04-20T02:13:18.923Z,32
2023-04-20T02:14:25.750Z,31
2023-04-20T02:15:33.179Z,34
2023-04-20T02:16:40.090Z,32
2023-04-20T02:17:46.997Z,33
2023-04-20T02:18:53.804Z,30
2023-04-20T02:20:00.705Z,33
2023-04-20T02:21:07.695Z,33
2023-04-20T02:22:14.537Z,31
2023-04-20T02:23:21.367Z,32
2023-04-20T02:24:28.241Z,33
2023-04-20T02:25:35.083Z,31
2023-04-20T02:26:42.055Z,30
2023-04-20T02:27:48.977Z,33
2023-04-20T02:28:55.912Z,30
2023-04-20T02:30:02.819Z,31
2023-04-20T02:31:10.086Z,32
2023-04-20T02:32:16.904Z,31
2023-04-20T02:33:23.797Z,31
2023-04-20T02:34:30.690Z,31
2023-04-20T02:35:37.480Z,31
2023-04-20T02:36:44.298Z,33
2023-04-20T02:37:51.146Z,32
2023-04-20T02:38:57.991Z,32
2023-04-20T02:40:04.833Z,31
2023-04-20T02:41:11.803Z,32
2023-04-20T02:42:18.607Z,30
2023-04-20T02:43:25.411Z,30
2023-04-20T02:44:32.334Z,31
2023-04-20T02:45:39.210Z,30
2023-04-20T02:46:46.109Z,30
2023-04-20T02:47:52.995Z,29
2023-04-20T02:49:00.672Z,32
2023-04-20T02:50:07.503Z,31
2023-04-20T02:51:14.368Z,31
2023-04-20T02:52:21.200Z,30
2023-04-20T02:53:28.080Z,30
2023-04-20T02:54:34.929Z,31
2023-04-20T02:55:41.819Z,31
2023-04-20T02:56:48.629Z,30
2023-04-20T02:57:55.464Z,29
2023-04-20T02:59:02.341Z,31
2023-04-20T03:00:09.231Z,31
2023-04-20T03:01:16.227Z,30
2023-04-20T03:02:24.106Z,28
2023-04-20T03:03:30.994Z,31
2023-04-20T03:04:37.937Z,32
2023-04-20T03:05:44.727Z,31
2023-04-20T03:06:51.627Z,31
2023-04-20T03:07:58.538Z,32
2023-04-20T03:09:05.410Z,29
2023-04-20T03:10:12.254Z,31
2023-04-20T03:11:19.086Z,31
2023-04-20T03:12:26.024Z,29
2023-04-20T03:13:32.861Z,30
2023-04-20T03:14:39.700Z,32
2023-04-20T03:15:47.713Z,31
2023-04-20T03:16:54.527Z,29
2023-04-20T03:18:01.716Z,31
2023-04-20T03:19:08.469Z,31
2023-04-20T03:20:15.301Z,31
2023-04-20T03:21:23.785Z,30
2023-04-20T03:22:30.611Z,32
2023-04-20T03:23:37.490Z,32
2023-04-20T03:24:44.341Z,32
2023-04-20T03:25:52.081Z,30
2023-04-20T03:26:58.988Z,31
2023-04-20T03:28:05.919Z,31
2023-04-20T03:29:12.760Z,34
2023-04-20T03:30:21.728Z,31
2023-04-20T03:31:28.901Z,31
2023-04-20T03:32:35.786Z,29
2023-04-20T03:33:42.590Z,31
2023-04-20T03:34:49.390Z,32
2023-04-20T03:35:56.223Z,34
2023-04-20T03:37:03.121Z,32
2023-04-20T03:38:10.029Z,33
2023-04-20T03:39:17.248Z,34
2023-04-20T03:40:24.659Z,33
2023-04-20T03:41:31.570Z,34
2023-04-20T03:42:38.418Z,33
2023-04-20T03:43:45.244Z,34
2023-04-20T03:44:52.208Z,34
2023-04-20T03:45:59.024Z,35
2023-04-20T03:47:05.931Z,33
2023-04-20T03:48:12.728Z,35
2023-04-20T03:49:21.216Z,35
2023-04-20T03:50:30.848Z,34
2023-04-20T03:51:38.777Z,36
2023-04-20T03:52:45.681Z,35
2023-04-20T03:53:52.566Z,34
2023-04-20T03:54:59.347Z,34
2023-04-20T03:56:06.295Z,35
2023-04-20T03:57:13.134Z,36
2023-04-20T03:58:19.928Z,36
2023-04-20T03:59:26.741Z,36
2023-04-20T04:00:33.561Z,36
2023-04-20T04:01:40.385Z,36
2023-04-20T04:02:47.476Z,36
2023-04-20T04:03:54.183Z,36
2023-04-20T04:05:00.984Z,35
2023-04-20T04:06:07.864Z,37
2023-04-20T04:07:14.715Z,36
2023-04-20T04:08:21.474Z,36
2023-04-20T04:09:28.378Z,34
2023-04-20T04:10:35.249Z,33
2023-04-20T04:11:42.131Z,35
2023-04-20T04:12:49.010Z,35
2023-04-20T04:13:55.934Z,36
2023-04-20T04:15:02.840Z,37
2023-04-20T04:16:11.082Z,33
2023-04-20T04:17:17.991Z,36
2023-04-20T04:18:24.970Z,32
2023-04-20T04:19:31.738Z,34
2023-04-20T04:20:38.601Z,34
2023-04-20T04:21:45.363Z,36
2023-04-20T04:22:52.192Z,37
2023-04-20T04:23:59.015Z,37
2023-04-20T04:25:05.946Z,36
2023-04-20T04:26:12.951Z,38
2023-04-20T04:27:19.807Z,38
2023-04-20T04:28:26.657Z,37
2023-04-20T04:29:33.511Z,38
2023-04-20T04:30:40.409Z,39
2023-04-20T04:31:47.478Z,37
2023-04-20T04:32:54.318Z,38
2023-04-20T04:34:01.106Z,38
2023-04-20T04:35:07.900Z,39
2023-04-20T04:36:14.732Z,38
2023-04-20T04:37:21.551Z,38
2023-04-20T04:38:28.444Z,39
2023-04-20T04:39:35.322Z,38
2023-04-20T04:40:42.197Z,38
2023-04-20T04:41:49.005Z,37
2023-04-20T04:42:55.832Z,37
2023-04-20T04:44:02.656Z,40
2023-04-20T04:45:09.497Z,36
2023-04-20T04:46:16.449Z,39
2023-04-20T04:47:23.237Z,39
2023-04-20T04:48:30.085Z,37
2023-04-20T04:49:36.913Z,38
2023-04-20T04:50:46.513Z,38
2023-04-20T04:51:53.309Z,37
2023-04-20T04:53:00.202Z,37
2023-04-20T04:54:07.007Z,39
2023-04-20T04:55:16.208Z,38
2023-04-20T04:56:20.762Z,37
2023-04-20T04:57:28.498Z,37
2023-04-20T04:58:35.377Z,38
2023-04-20T04:59:42.231Z,38
2023-04-20T05:00:50.148Z,37
2023-04-20T05:01:56.995Z,40
2023-04-20T05:03:03.963Z,39
2023-04-20T05:04:10.867Z,38
2023-04-20T05:05:17.578Z,38
2023-04-20T05:06:24.518Z,38
2023-04-20T05:07:31.735Z,37
2023-04-20T05:08:39.536Z,38
2023-04-20T05:09:46.593Z,38
2023-04-20T05:10:54.432Z,38
2023-04-20T05:12:01.415Z,36
2023-04-20T05:13:08.480Z,37
2023-04-20T05:14:18.357Z,39
2023-04-20T05:15:25.707Z,38
2023-04-20T05:16:35.428Z,37
2023-04-20T05:17:46.162Z,37
2023-04-20T05:18:54.414Z,37
2023-04-20T05:20:01.874Z,36
2023-04-20T05:21:09.149Z,36
2023-04-20T05:22:16.114Z,36
2023-04-20T05:23:23.910Z,34
2023-04-20T05:24:30.884Z,34
2023-04-20T05:25:37.820Z,36
2023-04-20T05:26:44.892Z,34
2023-04-20T05:27:54.239Z,35
2023-04-20T05:29:04.287Z,33
2023-04-20T05:30:20.149Z,33
2023-04-20T05:31:18.189Z,36
2023-04-20T05:32:25.094Z,32
2023-04-20T05:33:34.935Z,31
2023-04-20T05:34:43.974Z,33
2023-04-20T05:35:55.130Z,32
2023-04-20T05:37:02.143Z,34
2023-04-20T05:38:11.883Z,31
2023-04-20T05:39:20.076Z,32
2023-04-20T05:40:26.757Z,31
2023-04-20T05:41:34.403Z,31
2023-04-20T05:42:41.383Z,31
2023-04-20T05:43:48.386Z,31
2023-04-20T05:44:55.303Z,31
2023-04-20T05:46:02.790Z,32
2023-04-20T05:47:10.662Z,30
2023-04-20T05:48:21.309Z,31
2023-04-20T05:49:29.592Z,31
2023-04-20T05:50:36.540Z,32
2023-04-20T05:51:44.700Z,31
2023-04-20T05:52:52.699Z,31
2023-04-20T05:54:02.666Z,32
2023-04-20T05:55:09.624Z,32
2023-04-20T05:56:16.579Z,32
2023-04-20T05:57:23.524Z,30
2023-04-20T05:58:32.373Z,32
2023-04-20T05:59:39.303Z,32
2023-04-20T06:00:46.237Z,31
2023-04-20T06:01:53.075Z,31
2023-04-20T06:03:00.107Z,30
2023-04-20T06:04:07.233Z,31
2023-04-20T06:05:13.996Z,30
2023-04-20T06:06:21.545Z,31
2023-04-20T06:07:28.485Z,30
2023-04-20T06:08:36.640Z,30
2023-04-20T06:09:43.519Z,31
2023-04-20T06:10:50.328Z,31
2023-04-20T06:12:04.233Z,31
2023-04-20T06:13:11.222Z,30
2023-04-20T06:14:18.153Z,30
2023-04-20T06:15:26.485Z,31
2023-04-20T06:16:33.667Z,30
2023-04-20T06:17:40.430Z,30
2023-04-20T06:18:47.256Z,29
2023-04-20T06:19:54.421Z,30
2023-04-20T06:21:02.167Z,31
2023-04-20T06:22:09.398Z,30
2023-04-20T06:23:16.304Z,29
2023-04-20T06:24:23.251Z,32
2023-04-20T06:25:30.090Z,31
2023-04-20T06:26:37.488Z,30
2023-04-20T06:27:46.185Z,30
2023-04-20T06:28:53.064Z,30
2023-04-20T06:30:01.100Z,28
2023-04-20T06:31:11.024Z,29
2023-04-20T06:32:17.787Z,29
2023-04-20T06:33:25.750Z,29
2023-04-20T06:34:34.857Z,27
2023-04-20T06:35:41.685Z,29
2023-04-20T06:36:48.516Z,29
2023-04-20T06:37:55.335Z,28
2023-04-20T06:39:03.547Z,29
2023-04-20T06:40:13.700Z,29
2023-04-20T06:41:19.558Z,28
2023-04-20T06:42:26.501Z,27
2023-04-20T06:43:33.386Z,29
2023-04-20T06:44:40.249Z,28
2023-04-20T06:45:48.244Z,29
2023-04-20T06:46:55.881Z,25
2023-04-20T06:48:03.723Z,25
2023-04-20T06:49:12.113Z,24
2023-04-20T06:50:20.048Z,23
2023-04-20T06:51:28.014Z,22
2023-04-20T06:52:34.977Z,24
2023-04-20T06:53:43.627Z,23
2023-04-20T06:54:50.481Z,23
2023-04-20T06:55:57.504Z,23
2023-04-20T06:57:04.821Z,24
2023-04-20T06:58:11.860Z,22
2023-04-20T06:59:19.239Z,22
2023-04-20T07:00:29.988Z,23
2023-04-20T07:01:37.841Z,23
2023-04-20T07:02:46.260Z,22
2023-04-20T07:03:54.676Z,23
2023-04-20T07:05:01.466Z,23
2023-04-20T07:06:08.710Z,23
2023-04-20T07:07:19.250Z,23
2023-04-20T07:08:28.294Z,24
2023-04-20T07:09:36.634Z,24
2023-04-20T07:10:43.654Z,24
2023-04-20T07:11:51.338Z,22
2023-04-20T07:12:58.225Z,23
2023-04-20T07:14:05.787Z,22
2023-04-20T07:15:14.528Z,24
2023-04-20T07:16:21.434Z,25
2023-04-20T07:17:28.285Z,24
2023-04-20T07:18:35.525Z,22
2023-04-20T07:19:42.047Z,23
2023-04-20T07:20:48.881Z,24
2023-04-20T07:21:55.750Z,24
2023-04-20T07:23:02.678Z,23
2023-04-20T07:24:12.666Z,23
2023-04-20T07:25:21.014Z,22
2023-04-20T07:26:27.905Z,21
2023-04-20T07:27:37.017Z,21
2023-04-20T07:28:43.950Z,21
2023-04-20T07:29:53.952Z,21
2023-04-20T07:31:01.083Z,22
2023-04-20T07:32:09.011Z,23
2023-04-20T07:33:18.084Z,21
2023-04-20T07:34:25.047Z,23
2023-04-20T07:35:36.343Z,22
2023-04-20T07:36:43.317Z,22
2023-04-20T07:37:50.243Z,22
2023-04-20T07:38:57.129Z,21
2023-04-20T07:40:04.548Z,21
2023-04-20T07:41:13.366Z,19
2023-04-20T07:42:23.031Z,20
2023-04-20T07:43:30.138Z,22
2023-04-20T07:44:36.932Z,22
2023-04-20T07:45:44.781Z,23
2023-04-20T07:46:56.105Z,22
2023-04-20T07:48:04.029Z,22
2023-04-20T07:49:10.972Z,20
2023-04-20T07:50:18.559Z,20
2023-04-20T07:51:27.325Z,19
2023-04-20T07:52:34.303Z,19
2023-04-20T07:53:41.248Z,17
2023-04-20T07:54:49.053Z,17
2023-04-20T07:56:02.338Z,18
2023-04-20T07:57:10.731Z,18
2023-04-20T07:58:17.675Z,18
2023-04-20T07:59:24.858Z,18
2023-04-20T08:00:34.763Z,19
2023-04-20T08:01:41.788Z,17
2023-04-20T08:02:49.594Z,17
2023-04-20T08:03:57.412Z,18
2023-04-20T08:05:04.238Z,17
2023-04-20T08:06:11.049Z,15
2023-04-20T08:07:17.994Z,16
2023-04-20T08:08:24.904Z,16
2023-04-20T08:09:31.645Z,15
2023-04-20T08:10:38.506Z,14
2023-04-20T08:11:46.283Z,14
2023-04-20T08:12:54.121Z,14
2023-04-20T08:14:01.106Z,13
2023-04-20T08:15:08.130Z,15
2023-04-20T08:16:14.895Z,14
2023-04-20T08:17:24.831Z,13
2023-04-20T08:18:31.677Z,13
2023-04-20T08:19:38.892Z,14
2023-04-20T08:20:48.039Z,15
2023-04-20T08:21:55.033Z,14
2023-04-20T08:23:01.680Z,13
2023-04-20T08:24:08.513Z,14
2023-04-20T08:25:15.316Z,14
2023-04-20T08:26:22.297Z,12
2023-04-20T08:27:30.586Z,13
2023-04-20T08:28:38.470Z,12
2023-04-20T08:29:45.299Z,12
2023-04-20T08:30:52.283Z,12
2023-04-20T08:31:59.087Z,12
2023-04-20T08:33:06.791Z,12
2023-04-20T08:34:14.830Z,12
2023-04-20T08:35:21.675Z,12
2023-04-20T08:36:30.738Z,13
2023-04-20T08:37:37.547Z,14
2023-04-20T08:38:44.385Z,14
2023-04-20T08:39:51.501Z,13
2023-04-20T08:40:58.378Z,15
2023-04-20T08:42:06.139Z,14
2023-04-20T08:43:12.942Z,15
2023-04-20T08:44:19.811Z,14
2023-04-20T08:45:26.974Z,15
2023-04-20T08:46:34.085Z,15
2023-04-20T08:47:42.576Z,14
2023-04-20T08:48:49.615Z,15
2023-04-20T08:49:56.448Z,15
2023-04-20T08:51:03.339Z,15
2023-04-20T08:52:10.173Z,13
2023-04-20T08:53:20.244Z,13
2023-04-20T08:54:27.084Z,14
2023-04-20T08:55:33.954Z,14
2023-04-20T08:56:41.754Z,13
2023-04-20T08:57:48.797Z,13
2023-04-20T08:58:55.626Z,12
2023-04-20T09:00:02.516Z,12
2023-04-20T09:01:12.733Z,13
2023-04-20T09:02:18.745Z,13
2023-04-20T09:03:26.533Z,13
2023-04-20T09:04:38.596Z,13
2023-04-20T09:05:45.292Z,14
2023-04-20T09:06:52.151Z,14
2023-04-20T09:07:58.977Z,12
2023-04-20T09:09:06.764Z,12
2023-04-20T09:10:13.602Z,12
2023-04-20T09:11:20.542Z,12
2023-04-20T09:12:27.394Z,11
2023-04-20T09:13:34.254Z,12
2023-04-20T09:14:41.189Z,12
2023-04-20T09:15:48.040Z,13
2023-04-20T09:16:54.861Z,13
2023-04-20T09:18:01.802Z,12
2023-04-20T09:19:17.395Z,12
2023-04-20T09:20:24.286Z,12
2023-04-20T09:21:37.612Z,12
2023-04-20T09:22:52.387Z,13
2023-04-20T09:23:59.188Z,12
2023-04-20T09:25:06.030Z,12
2023-04-20T09:26:18.922Z,12
2023-04-20T09:27:25.727Z,13
2023-04-20T09:28:32.632Z,12
2023-04-20T09:29:39.500Z,12
2023-04-20T09:30:47.384Z,13
2023-04-20T09:31:54.397Z,12
2023-04-20T09:33:01.205Z,12
2023-04-20T09:34:09.049Z,12
2023-04-20T09:35:15.738Z,12
2023-04-20T09:36:26.516Z,12
2023-04-20T09:37:41.020Z,13
2023-04-20T09:38:50.792Z,13
2023-04-20T09:40:08.025Z,13
2023-04-20T09:41:14.943Z,13
2023-04-20T09:42:21.835Z,13
2023-04-20T09:43:28.707Z,14
2023-04-20T09:44:35.547Z,13
2023-04-20T09:45:42.364Z,13
2023-04-20T09:46:49.108Z,13
2023-04-20T09:47:55.864Z,14
2023-04-20T09:49:02.653Z,13
2023-04-20T09:50:19.807Z,13
2023-04-20T09:51:16.389Z,14
2023-04-20T09:52:23.255Z,14
2023-04-20T09:53:30.127Z,13
2023-04-20T09:54:36.968Z,12
2023-04-20T09:55:43.778Z,12
2023-04-20T09:56:53.626Z,14
2023-04-20T09:58:00.605Z,12
2023-04-20T09:59:07.446Z,12
2023-04-20T10:00:14.287Z,13
2023-04-20T10:01:21.349Z,12
2023-04-20T10:02:28.391Z,12
2023-04-20T10:03:35.392Z,12
2023-04-20T10:04:42.270Z,13
2023-04-20T10:05:56.958Z,13
2023-04-20T10:07:03.717Z,12
2023-04-20T10:08:10.622Z,13
2023-04-20T10:09:17.599Z,13
2023-04-20T10:10:24.443Z,14
2023-04-20T10:11:37.391Z,13
2023-04-20T10:12:38.034Z,12
2023-04-20T10:13:50.003Z,13
2023-04-20T10:14:56.840Z,12
2023-04-20T10:16:03.657Z,13
2023-04-20T10:17:10.631Z,14
2023-04-20T10:18:17.414Z,13
2023-04-20T10:19:24.239Z,13
2023-04-20T10:20:39.095Z,13
2023-04-20T10:21:45.876Z,12
2023-04-20T10:22:52.800Z,12
2023-04-20T10:23:59.976Z,12
2023-04-20T10:25:07.012Z,12
2023-04-20T10:26:16.705Z,12
2023-04-20T10:27:23.546Z,12
2023-04-20T10:28:30.362Z,12
2023-04-20T10:29:40.482Z,12
2023-04-20T10:30:47.318Z,12
2023-04-20T10:31:54.163Z,11
2023-04-20T10:33:01.078Z,12
2023-04-20T10:34:13.692Z,11
2023-04-20T10:35:20.569Z,11
2023-04-20T10:36:27.464Z,11
2023-04-20T10:37:36.917Z,12
2023-04-20T10:38:51.933Z,12
2023-04-20T10:39:58.844Z,12
2023-04-20T10:41:05.728Z,12
2023-04-20T10:42:12.552Z,12
2023-04-20T10:43:19.325Z,13
2023-04-20T10:44:26.171Z,12
2023-04-20T10:45:32.947Z,13
2023-04-20T10:46:40.688Z,13
2023-04-20T10:47:47.547Z,12
2023-04-20T10:48:54.450Z,11
2023-04-20T10:50:01.397Z,11
2023-04-20T10:51:14.171Z,10
2023-04-20T10:52:21.140Z,10
2023-04-20T10:53:36.150Z,10
2023-04-20T10:54:42.923Z,11
2023-04-20T10:55:50.848Z,11
2023-04-20T10:57:00.938Z,10
2023-04-20T10:58:07.828Z,11
2023-04-20T10:59:24.969Z,11
2023-04-20T11:00:31.780Z,11
2023-04-20T11:01:38.633Z,11
2023-04-20T11:02:45.433Z,12
2023-04-20T11:03:52.338Z,12
2023-04-20T11:04:59.241Z,13
2023-04-20T11:06:11.926Z,13
2023-04-20T11:07:18.915Z,14
2023-04-20T11:08:25.913Z,13
2023-04-20T11:09:40.826Z,12
2023-04-20T11:10:50.693Z,12
2023-04-20T11:11:57.537Z,12
2023-04-20T11:13:07.174Z,11
2023-04-20T11:14:24.431Z,12
2023-04-20T11:15:31.298Z,12
2023-04-20T11:16:49.513Z,11
2023-04-20T11:17:45.030Z,12
2023-04-20T11:18:51.909Z,11
2023-04-20T11:19:58.791Z,12
2023-04-20T11:21:15.913Z,12
2023-04-20T11:22:22.811Z,11
2023-04-20T11:23:29.830Z,12
2023-04-20T11:24:37.182Z,12
2023-04-20T11:25:44.317Z,12
2023-04-20T11:26:54.241Z,13
2023-04-20T11:28:01.210Z,13
2023-04-20T11:29:10.865Z,12
2023-04-20T11:30:19.643Z,12
2023-04-20T11:31:26.662Z,12
2023-04-20T11:32:33.774Z,12
2023-04-20T11:33:40.460Z,12
2023-04-20T11:34:50.185Z,12
2023-04-20T11:36:02.174Z,13
2023-04-20T11:37:09.101Z,12
2023-04-20T11:38:18.966Z,11
2023-04-20T11:39:30.973Z,12
2023-04-20T11:40:37.822Z,12
2023-04-20T11:41:44.883Z,12
2023-04-20T11:42:51.659Z,13
2023-04-20T11:43:58.538Z,12
2023-04-20T11:45:05.357Z,12
2023-04-20T11:46:13.797Z,13
2023-04-20T11:47:23.822Z,14
2023-04-20T11:48:30.620Z,13
2023-04-20T11:49:37.444Z,12
2023-04-20T11:50:44.389Z,13
2023-04-20T11:51:51.267Z,12
2023-04-20T11:52:58.045Z,12
2023-04-20T11:54:04.867Z,11
2023-04-20T11:55:11.652Z,12
2023-04-20T11:56:18.535Z,11
2023-04-20T11:57:25.380Z,12
2023-04-20T11:58:32.226Z,12
2023-04-20T11:59:39.254Z,11
2023-04-20T12:00:46.162Z,11
2023-04-20T12:01:52.943Z,12
2023-04-20T12:02:59.888Z,12
2023-04-20T12:04:06.963Z,11
2023-04-20T12:05:13.541Z,12
2023-04-20T12:06:20.426Z,11
2023-04-20T12:07:27.272Z,11
2023-04-20T12:08:34.090Z,11
2023-04-20T12:09:40.830Z,11
2023-04-20T12:10:47.664Z,11
2023-04-20T12:11:54.550Z,11
2023-04-20T12:13:01.368Z,10
2023-04-20T12:14:08.300Z,11
2023-04-20T12:15:15.046Z,10
2023-04-20T12:16:21.863Z,11
2023-04-20T12:17:28.714Z,10
2023-04-20T12:18:35.450Z,11
2023-04-20T12:19:42.857Z,10
2023-04-20T12:20:49.760Z,9
2023-04-20T12:21:56.522Z,10
2023-04-20T12:23:03.389Z,10
2023-04-20T12:24:10.217Z,10
2023-04-20T12:25:17.043Z,9
2023-04-20T12:26:31.906Z,10
2023-04-20T12:27:30.996Z,9
2023-04-20T12:28:37.897Z,9
2023-04-20T12:29:44.787Z,9
2023-04-20T12:30:51.547Z,8
2023-04-20T12:31:58.533Z,9
2023-04-20T12:33:05.264Z,9
2023-04-20T12:34:12.057Z,9
2023-04-20T12:35:19.073Z,9
2023-04-20T12:36:26.010Z,9
2023-04-20T12:37:34.382Z,7
2023-04-20T12:38:41.470Z,7
2023-04-20T12:39:48.437Z,7
2023-04-20T12:40:55.413Z,7
2023-04-20T12:42:03.504Z,7
2023-04-20T12:43:10.331Z,6
2023-04-20T12:44:17.460Z,7
2023-04-20T12:45:24.060Z,7
2023-04-20T12:46:30.977Z,8
2023-04-20T12:47:37.817Z,7
2023-04-20T12:48:44.617Z,7
2023-04-20T12:49:51.417Z,7
2023-04-20T12:50:58.194Z,7
2023-04-20T12:52:06.887Z,8
2023-04-20T12:53:12.211Z,8
2023-04-20T12:54:19.272Z,9
2023-04-20T12:55:26.080Z,9
2023-04-20T12:56:33.827Z,9
2023-04-20T12:57:40.942Z,9
2023-04-20T12:58:47.857Z,9
2023-04-20T12:59:54.686Z,9
2023-04-20T13:01:01.662Z,9
2023-04-20T13:02:08.759Z,8
2023-04-20T13:03:15.638Z,9
2023-04-20T13:04:22.848Z,9
2023-04-20T13:05:29.437Z,8
2023-04-20T13:06:39.573Z,8
2023-04-20T13:07:46.453Z,8
2023-04-20T13:08:53.410Z,8
2023-04-20T13:10:00.391Z,8
2023-04-20T13:11:11.780Z,8
2023-04-20T13:12:18.753Z,9
2023-04-20T13:13:26.598Z,7
2023-04-20T13:14:33.568Z,7
2023-04-20T13:15:40.567Z,7
2023-04-20T13:16:47.589Z,7
2023-04-20T13:17:54.496Z,7
2023-04-20T13:19:01.637Z,6
2023-04-20T13:20:08.648Z,6
2023-04-20T13:21:15.632Z,6
2023-04-20T13:22:23.043Z,6
2023-04-20T13:23:30.068Z,6
2023-04-20T13:24:37.045Z,6
2023-04-20T13:25:44.018Z,6
2023-04-20T13:26:50.984Z,6
2023-04-20T13:28:00.992Z,6
2023-04-20T13:29:08.036Z,6
2023-04-20T13:30:15.081Z,6
2023-04-20T13:31:22.063Z,6
2023-04-20T13:32:28.917Z,5
2023-04-20T13:33:36.060Z,5
2023-04-20T13:34:43.019Z,5
2023-04-20T13:35:53.036Z,5
2023-04-20T13:37:00.203Z,5
2023-04-20T13:38:07.052Z,5
2023-04-20T13:39:14.065Z,5
2023-04-20T13:40:21.008Z,5
2023-04-20T13:41:28.560Z,5
2023-04-20T13:42:35.577Z,5
2023-04-20T13:43:42.481Z,5
2023-04-20T13:44:49.410Z,5
2023-04-20T13:45:56.435Z,5
2023-04-20T13:47:03.461Z,5
2023-04-20T13:48:10.584Z,5
2023-04-20T13:49:17.591Z,6
2023-04-20T13:50:25.879Z,5
2023-04-20T13:51:32.824Z,6
2023-04-20T13:52:39.840Z,5
2023-04-20T13:53:46.918Z,6
2023-04-20T13:54:53.840Z,6
2023-04-20T13:56:00.771Z,6
2023-04-20T13:57:23.131Z,6
2023-04-20T13:58:30.157Z,6
2023-04-20T13:59:36.986Z,5
2023-04-20T14:00:43.887Z,6
2023-04-20T14:01:50.940Z,6
2023-04-20T14:02:57.667Z,6
2023-04-20T14:04:04.530Z,6
2023-04-20T14:05:11.286Z,6
2023-04-20T14:06:18.113Z,6
2023-04-20T14:07:25.011Z,6
2023-04-20T14:08:31.759Z,6
2023-04-20T14:09:38.605Z,6
2023-04-20T14:10:45.427Z,6
2023-04-20T14:11:54.947Z,5
2023-04-20T14:12:59.027Z,5
2023-04-20T14:14:05.799Z,5
2023-04-20T14:15:12.605Z,5
2023-04-20T14:16:19.471Z,6
2023-04-20T14:17:26.274Z,6
2023-04-20T14:18:33.087Z,5
2023-04-20T14:19:39.885Z,5
2023-04-20T14:20:46.705Z,6
2023-04-20T14:21:53.575Z,6
2023-04-20T14:23:00.450Z,5
2023-04-20T14:24:07.141Z,6
2023-04-20T14:25:13.929Z,6
2023-04-20T14:26:20.826Z,7
2023-04-20T14:27:27.673Z,6
2023-04-20T14:28:34.527Z,7
2023-04-20T14:29:41.320Z,7
2023-04-20T14:30:48.166Z,7
2023-04-20T14:31:55.971Z,7
2023-04-20T14:33:02.843Z,7
2023-04-20T14:34:09.626Z,6
2023-04-20T14:35:16.457Z,6
2023-04-20T14:36:23.275Z,7
2023-04-20T14:37:30.037Z,6
2023-04-20T14:38:36.867Z,7
2023-04-20T14:39:43.696Z,6
2023-04-20T14:40:50.725Z,6
2023-04-20T14:41:57.509Z,6
2023-04-20T14:43:04.365Z,6
2023-04-20T14:44:11.194Z,6
2023-04-20T14:45:17.964Z,5
2023-04-20T14:46:24.990Z,6
2023-04-20T14:47:31.725Z,6
2023-04-20T14:48:38.470Z,6
2023-04-20T14:49:45.343Z,6
2023-04-20T14:50:52.175Z,5
2023-04-20T14:51:59.035Z,6
2023-04-20T14:53:05.913Z,6
2023-04-20T14:54:12.672Z,6
2023-04-20T14:55:19.652Z,6
2023-04-20T14:56:26.536Z,5
2023-04-20T14:57:33.303Z,4
2023-04-20T14:58:40.163Z,3
2023-04-20T14:59:46.993Z,3
2023-04-20T15:00:53.798Z,3
2023-04-20T15:02:02.651Z,3
2023-04-20T15:03:07.624Z,4
2023-04-20T15:04:14.284Z,3
2023-04-20T15:05:21.090Z,3
2023-04-20T15:06:27.771Z,4
2023-04-20T15:07:34.583Z,3
2023-04-20T15:08:41.360Z,3
2023-04-20T15:09:48.158Z,4
2023-04-20T15:10:57.115Z,3
2023-04-20T15:12:04.144Z,3
2023-04-20T15:13:11.088Z,3
2023-04-20T15:14:19.214Z,3
2023-04-20T15:15:31.944Z,3
2023-04-20T15:16:33.873Z,3
2023-04-20T15:17:44.119Z,3
2023-04-20T15:18:50.975Z,3
2023-04-20T15:19:57.809Z,3
2023-04-20T15:21:07.957Z,3
2023-04-20T15:22:14.753Z,3
2023-04-20T15:23:22.381Z,3
2023-04-20T15:24:31.505Z,3
2023-04-20T15:25:38.338Z,3
2023-04-20T15:26:45.198Z,4
2023-04-20T15:27:53.186Z,3
2023-04-20T15:29:00.126Z,4
2023-04-20T15:30:07.092Z,4
2023-04-20T15:31:14.071Z,4
2023-04-20T15:32:21.130Z,4
2023-04-20T15:33:27.876Z,4
2023-04-20T15:34:35.823Z,4
2023-04-20T15:35:42.625Z,4
2023-04-20T15:36:49.504Z,4
2023-04-20T15:37:56.344Z,3
2023-04-20T15:39:03.152Z,3
2023-04-20T15:40:09.965Z,4
2023-04-20T15:41:16.792Z,4
2023-04-20T15:42:23.815Z,4
2023-04-20T15:43:32.745Z,4
2023-04-20T15:44:39.588Z,4
2023-04-20T15:45:46.464Z,3
2023-04-20T15:46:53.287Z,4
2023-04-20T15:48:00.193Z,3
2023-04-20T15:49:06.971Z,3
2023-04-20T15:50:13.790Z,4
2023-04-20T15:51:21.007Z,3
2023-04-20T15:52:27.901Z,3
2023-04-20T15:53:34.661Z,3
2023-04-20T15:54:41.481Z,3
2023-04-20T15:55:48.286Z,3
2023-04-20T15:56:55.282Z,3
2023-04-20T15:58:02.126Z,3
2023-04-20T15:59:08.978Z,4
2023-04-20T16:00:15.775Z,3
2023-04-20T16:01:22.746Z,3
2023-04-20T16:02:29.658Z,4
2023-04-20T16:03:36.608Z,3
2023-04-20T16:04:43.491Z,3
2023-04-20T16:05:50.155Z,3
2023-04-20T16:06:56.972Z,3
2023-04-20T16:08:06.408Z,3
2023-04-20T16:09:13.218Z,3